sensor_id;sensor_type;location;lat;lon;timestamp;P1;durP1;ratioP1;P2;durP2;ratioP2
76807;SDS011;65758;45.458;11.062;2022-12-29T00:02:41;20.70;;;12.00;;
76807;SDS011;65758;45.458;11.062;2022-12-29T00:05:08;16.30;;;11.10;;
76807;SDS011;65758;45.458;11.062;2022-12-29T00:07:35;15.30;;;10.50;;
76807;SDS011;65758;45.458;11.062;2022-12-29T00:10:02;22.10;;;14.10;;
76807;SDS011;65758;45.458;11.062;2022-12-29T00:12:29;18.30;;;12.30;;
76807;SDS011;65758;45.458;11.062;2022-12-29T00:15:15;15.80;;;10.70;;
76807;SDS011;65758;45.458;11.062;2022-12-29T00:18:01;17.60;;;10.40;;
76807;SDS011;65758;45.458;11.062;2022-12-29T00:20:28;16.40;;;10.10;;
76807;SDS011;65758;45.458;11.062;2022-12-29T00:23:13;18.50;;;9.30;;
76807;SDS011;65758;45.458;11.062;2022-12-29T00:26:02;17.50;;;10.20;;
76807;SDS011;65758;45.458;11.062;2022-12-29T00:28:49;13.20;;;8.40;;
76807;SDS011;65758;45.458;11.062;2022-12-29T00:31:49;19.10;;;9.80;;
76807;SDS011;65758;45.458;11.062;2022-12-29T00:34:34;18.30;;;10.10;;
76807;SDS011;65758;45.458;11.062;2022-12-29T00:37:20;13.20;;;9.00;;
76807;SDS011;65758;45.458;11.062;2022-12-29T00:40:07;17.30;;;8.50;;
76807;SDS011;65758;45.458;11.062;2022-12-29T00:42:53;17.40;;;11.50;;
76807;SDS011;65758;45.458;11.062;2022-12-29T00:45:40;18.10;;;12.30;;
76807;SDS011;65758;45.458;11.062;2022-12-29T00:48:08;17.90;;;11.20;;
76807;SDS011;65758;45.458;11.062;2022-12-29T00:50:35;17.30;;;10.80;;
76807;SDS011;65758;45.458;11.062;2022-12-29T00:55:28;15.40;;;10.70;;
76807;SDS011;65758;45.458;11.062;2022-12-29T01:00:21;17.10;;;11.50;;
76807;SDS011;65758;45.458;11.062;2022-12-29T01:02:48;17.10;;;11.60;;
76807;SDS011;65758;45.458;11.062;2022-12-29T01:05:15;15.00;;;11.50;;
76807;SDS011;65758;45.458;11.062;2022-12-29T01:07:44;18.70;;;11.70;;
76807;SDS011;65758;45.458;11.062;2022-12-29T01:12:37;18.80;;;11.60;;
76807;SDS011;65758;45.458;11.062;2022-12-29T01:15:09;16.30;;;11.10;;
76807;SDS011;65758;45.458;11.062;2022-12-29T01:17:38;22.40;;;12.50;;
76807;SDS011;65758;45.458;11.062;2022-12-29T01:20:05;19.80;;;12.40;;
76807;SDS011;65758;45.458;11.062;2022-12-29T01:22:34;18.30;;;13.50;;
76807;SDS011;65758;45.458;11.062;2022-12-29T01:25:00;20.70;;;13.40;;
76807;SDS011;65758;45.458;11.062;2022-12-29T01:29:54;17.90;;;11.30;;
76807;SDS011;65758;45.458;11.062;2022-12-29T01:32:20;18.80;;;12.10;;
76807;SDS011;65758;45.458;11.062;2022-12-29T01:34:47;17.10;;;11.80;;
76807;SDS011;65758;45.458;11.062;2022-12-29T01:37:14;17.00;;;11.60;;
76807;SDS011;65758;45.458;11.062;2022-12-29T01:42:17;17.90;;;11.30;;
76807;SDS011;65758;45.458;11.062;2022-12-29T01:49:54;16.20;;;10.30;;
76807;SDS011;65758;45.458;11.062;2022-12-29T01:52:24;17.30;;;11.60;;
76807;SDS011;65758;45.458;11.062;2022-12-29T01:54:53;14.20;;;10.30;;
76807;SDS011;65758;45.458;11.062;2022-12-29T01:57:25;17.90;;;11.20;;
76807;SDS011;65758;45.458;11.062;2022-12-29T01:59:58;16.60;;;11.20;;
76807;SDS011;65758;45.458;11.062;2022-12-29T02:02:38;17.50;;;10.50;;
76807;SDS011;65758;45.458;11.062;2022-12-29T02:05:13;17.40;;;10.30;;
76807;SDS011;65758;45.458;11.062;2022-12-29T02:07:44;17.30;;;11.00;;
76807;SDS011;65758;45.458;11.062;2022-12-29T02:10:13;17.00;;;10.80;;
76807;SDS011;65758;45.458;11.062;2022-12-29T02:12:40;19.10;;;10.70;;
76807;SDS011;65758;45.458;11.062;2022-12-29T02:15:08;12.50;;;9.00;;
76807;SDS011;65758;45.458;11.062;2022-12-29T02:20:56;17.30;;;10.50;;
76807;SDS011;65758;45.458;11.062;2022-12-29T02:29:36;18.20;;;9.60;;
76807;SDS011;65758;45.458;11.062;2022-12-29T02:48:17;17.10;;;9.80;;
76807;SDS011;65758;45.458;11.062;2022-12-29T02:51:40;13.60;;;8.70;;
76807;SDS011;65758;45.458;11.062;2022-12-29T02:53:44;16.30;;;10.10;;
76807;SDS011;65758;45.458;11.062;2022-12-29T02:56:31;12.50;;;8.80;;
76807;SDS011;65758;45.458;11.062;2022-12-29T02:58:58;12.60;;;8.70;;
76807;SDS011;65758;45.458;11.062;2022-12-29T03:04:20;15.90;;;9.70;;
76807;SDS011;65758;45.458;11.062;2022-12-29T03:07:00;17.20;;;9.90;;
76807;SDS011;65758;45.458;11.062;2022-12-29T03:15:28;22.30;;;11.60;;
76807;SDS011;65758;45.458;11.062;2022-12-29T03:18:20;18.90;;;10.50;;
76807;SDS011;65758;45.458;11.062;2022-12-29T03:23:27;19.00;;;11.20;;
76807;SDS011;65758;45.458;11.062;2022-12-29T03:25:57;15.70;;;10.20;;
76807;SDS011;65758;45.458;11.062;2022-12-29T03:28:29;15.80;;;10.40;;
76807;SDS011;65758;45.458;11.062;2022-12-29T03:31:02;13.40;;;9.00;;
76807;SDS011;65758;45.458;11.062;2022-12-29T03:33:30;17.20;;;10.80;;
76807;SDS011;65758;45.458;11.062;2022-12-29T03:36:02;17.80;;;11.20;;
76807;SDS011;65758;45.458;11.062;2022-12-29T03:38:39;14.30;;;9.80;;
76807;SDS011;65758;45.458;11.062;2022-12-29T03:41:12;19.00;;;10.80;;
76807;SDS011;65758;45.458;11.062;2022-12-29T03:43:44;17.20;;;11.00;;
76807;SDS011;65758;45.458;11.062;2022-12-29T03:46:11;15.40;;;10.00;;
76807;SDS011;65758;45.458;11.062;2022-12-29T03:48:39;18.40;;;11.00;;
76807;SDS011;65758;45.458;11.062;2022-12-29T03:51:07;17.70;;;10.10;;
76807;SDS011;65758;45.458;11.062;2022-12-29T03:53:34;15.50;;;9.70;;
76807;SDS011;65758;45.458;11.062;2022-12-29T03:56:01;18.90;;;11.10;;
76807;SDS011;65758;45.458;11.062;2022-12-29T03:58:29;16.20;;;11.10;;
76807;SDS011;65758;45.458;11.062;2022-12-29T04:01:12;18.90;;;11.10;;
76807;SDS011;65758;45.458;11.062;2022-12-29T04:03:39;17.00;;;10.70;;
76807;SDS011;65758;45.458;11.062;2022-12-29T04:06:06;16.20;;;10.40;;
76807;SDS011;65758;45.458;11.062;2022-12-29T04:08:46;16.70;;;10.30;;
76807;SDS011;65758;45.458;11.062;2022-12-29T04:13:40;17.00;;;9.90;;
76807;SDS011;65758;45.458;11.062;2022-12-29T04:16:09;15.00;;;11.00;;
76807;SDS011;65758;45.458;11.062;2022-12-29T04:21:03;14.60;;;9.60;;
76807;SDS011;65758;45.458;11.062;2022-12-29T04:23:34;16.40;;;9.80;;
76807;SDS011;65758;45.458;11.062;2022-12-29T04:26:05;15.00;;;9.60;;
76807;SDS011;65758;45.458;11.062;2022-12-29T04:28:38;17.60;;;11.30;;
76807;SDS011;65758;45.458;11.062;2022-12-29T04:31:32;17.50;;;10.50;;
76807;SDS011;65758;45.458;11.062;2022-12-29T04:34:00;19.80;;;11.10;;
76807;SDS011;65758;45.458;11.062;2022-12-29T04:36:27;20.70;;;11.40;;
76807;SDS011;65758;45.458;11.062;2022-12-29T04:38:56;16.70;;;10.50;;
76807;SDS011;65758;45.458;11.062;2022-12-29T04:41:23;15.80;;;9.70;;
76807;SDS011;65758;45.458;11.062;2022-12-29T04:43:51;15.50;;;9.60;;
76807;SDS011;65758;45.458;11.062;2022-12-29T04:46:21;15.50;;;9.40;;
76807;SDS011;65758;45.458;11.062;2022-12-29T04:48:53;15.30;;;9.60;;
76807;SDS011;65758;45.458;11.062;2022-12-29T04:51:39;14.40;;;9.50;;
76807;SDS011;65758;45.458;11.062;2022-12-29T04:54:08;18.90;;;10.70;;
76807;SDS011;65758;45.458;11.062;2022-12-29T04:56:35;16.60;;;10.20;;
76807;SDS011;65758;45.458;11.062;2022-12-29T05:01:29;19.90;;;10.80;;
76807;SDS011;65758;45.458;11.062;2022-12-29T05:03:56;19.60;;;11.10;;
76807;SDS011;65758;45.458;11.062;2022-12-29T05:06:24;18.80;;;11.10;;
76807;SDS011;65758;45.458;11.062;2022-12-29T05:11:19;16.60;;;10.30;;
76807;SDS011;65758;45.458;11.062;2022-12-29T05:13:48;16.20;;;10.80;;
76807;SDS011;65758;45.458;11.062;2022-12-29T05:16:16;14.30;;;10.30;;
76807;SDS011;65758;45.458;11.062;2022-12-29T05:18:44;15.50;;;10.20;;
76807;SDS011;65758;45.458;11.062;2022-12-29T05:21:10;16.00;;;9.30;;
76807;SDS011;65758;45.458;11.062;2022-12-29T05:23:39;16.90;;;10.90;;
76807;SDS011;65758;45.458;11.062;2022-12-29T05:26:06;15.50;;;9.80;;
76807;SDS011;65758;45.458;11.062;2022-12-29T05:28:53;14.90;;;9.80;;
76807;SDS011;65758;45.458;11.062;2022-12-29T05:31:21;12.70;;;9.00;;
76807;SDS011;65758;45.458;11.062;2022-12-29T05:33:48;19.70;;;10.40;;
76807;SDS011;65758;45.458;11.062;2022-12-29T05:36:16;16.30;;;10.90;;
76807;SDS011;65758;45.458;11.062;2022-12-29T05:38:48;14.70;;;9.10;;
76807;SDS011;65758;45.458;11.062;2022-12-29T05:41:16;14.70;;;9.10;;
76807;SDS011;65758;45.458;11.062;2022-12-29T05:43:49;15.00;;;9.80;;
76807;SDS011;65758;45.458;11.062;2022-12-29T05:46:28;15.50;;;9.80;;
76807;SDS011;65758;45.458;11.062;2022-12-29T05:49:07;15.10;;;10.00;;
76807;SDS011;65758;45.458;11.062;2022-12-29T05:52:07;15.80;;;9.90;;
76807;SDS011;65758;45.458;11.062;2022-12-29T05:54:33;17.60;;;10.70;;
76807;SDS011;65758;45.458;11.062;2022-12-29T05:57:02;14.90;;;10.00;;
76807;SDS011;65758;45.458;11.062;2022-12-29T05:59:30;16.00;;;11.00;;
76807;SDS011;65758;45.458;11.062;2022-12-29T06:01:56;16.50;;;10.90;;
76807;SDS011;65758;45.458;11.062;2022-12-29T06:04:24;16.10;;;11.20;;
76807;SDS011;65758;45.458;11.062;2022-12-29T06:06:51;15.40;;;10.10;;
76807;SDS011;65758;45.458;11.062;2022-12-29T06:09:23;15.30;;;9.40;;
76807;SDS011;65758;45.458;11.062;2022-12-29T06:11:52;14.00;;;9.90;;
76807;SDS011;65758;45.458;11.062;2022-12-29T06:14:19;21.30;;;11.30;;
76807;SDS011;65758;45.458;11.062;2022-12-29T06:16:46;16.60;;;9.90;;
76807;SDS011;65758;45.458;11.062;2022-12-29T06:19:13;17.00;;;10.60;;
76807;SDS011;65758;45.458;11.062;2022-12-29T06:21:40;15.60;;;9.80;;
76807;SDS011;65758;45.458;11.062;2022-12-29T06:24:08;18.10;;;10.10;;
76807;SDS011;65758;45.458;11.062;2022-12-29T06:26:36;15.30;;;10.80;;
76807;SDS011;65758;45.458;11.062;2022-12-29T06:29:03;15.60;;;10.30;;
76807;SDS011;65758;45.458;11.062;2022-12-29T06:31:31;21.70;;;10.70;;
76807;SDS011;65758;45.458;11.062;2022-12-29T06:33:58;21.80;;;12.10;;
76807;SDS011;65758;45.458;11.062;2022-12-29T06:36:33;16.40;;;10.60;;
76807;SDS011;65758;45.458;11.062;2022-12-29T06:39:00;18.30;;;10.90;;
76807;SDS011;65758;45.458;11.062;2022-12-29T06:44:10;18.20;;;11.70;;
76807;SDS011;65758;45.458;11.062;2022-12-29T06:46:51;17.10;;;11.60;;
76807;SDS011;65758;45.458;11.062;2022-12-29T06:51:45;16.30;;;10.20;;
76807;SDS011;65758;45.458;11.062;2022-12-29T06:54:13;14.70;;;10.00;;
76807;SDS011;65758;45.458;11.062;2022-12-29T06:56:39;17.30;;;10.50;;
76807;SDS011;65758;45.458;11.062;2022-12-29T06:59:06;16.10;;;10.80;;
76807;SDS011;65758;45.458;11.062;2022-12-29T07:04:01;15.70;;;9.80;;
76807;SDS011;65758;45.458;11.062;2022-12-29T07:06:29;15.10;;;10.40;;
76807;SDS011;65758;45.458;11.062;2022-12-29T07:08:56;13.40;;;10.00;;
76807;SDS011;65758;45.458;11.062;2022-12-29T07:11:23;15.60;;;10.90;;
76807;SDS011;65758;45.458;11.062;2022-12-29T07:13:50;17.20;;;10.80;;
76807;SDS011;65758;45.458;11.062;2022-12-29T07:16:17;18.50;;;10.80;;
76807;SDS011;65758;45.458;11.062;2022-12-29T07:18:44;17.90;;;10.30;;
76807;SDS011;65758;45.458;11.062;2022-12-29T07:23:38;14.50;;;10.30;;
76807;SDS011;65758;45.458;11.062;2022-12-29T07:28:34;19.90;;;11.30;;
76807;SDS011;65758;45.458;11.062;2022-12-29T07:31:01;16.70;;;10.50;;
76807;SDS011;65758;45.458;11.062;2022-12-29T07:33:29;15.50;;;9.80;;
76807;SDS011;65758;45.458;11.062;2022-12-29T07:35:56;18.50;;;11.50;;
76807;SDS011;65758;45.458;11.062;2022-12-29T07:38:23;15.00;;;10.40;;
76807;SDS011;65758;45.458;11.062;2022-12-29T07:40:50;17.40;;;10.80;;
76807;SDS011;65758;45.458;11.062;2022-12-29T07:46:19;18.90;;;11.80;;
76807;SDS011;65758;45.458;11.062;2022-12-29T07:49:06;19.50;;;11.20;;
76807;SDS011;65758;45.458;11.062;2022-12-29T07:51:33;18.50;;;11.40;;
76807;SDS011;65758;45.458;11.062;2022-12-29T07:56:27;18.50;;;11.60;;
76807;SDS011;65758;45.458;11.062;2022-12-29T07:58:53;22.20;;;13.30;;
76807;SDS011;65758;45.458;11.062;2022-12-29T08:03:50;21.10;;;13.10;;
76807;SDS011;65758;45.458;11.062;2022-12-29T08:06:22;23.60;;;13.70;;
76807;SDS011;65758;45.458;11.062;2022-12-29T08:08:49;20.20;;;12.40;;
76807;SDS011;65758;45.458;11.062;2022-12-29T08:11:16;21.90;;;13.00;;
76807;SDS011;65758;45.458;11.062;2022-12-29T08:13:43;24.70;;;14.50;;
76807;SDS011;65758;45.458;11.062;2022-12-29T08:16:09;20.00;;;13.60;;
76807;SDS011;65758;45.458;11.062;2022-12-29T08:18:36;19.40;;;12.50;;
76807;SDS011;65758;45.458;11.062;2022-12-29T08:21:03;21.90;;;12.50;;
76807;SDS011;65758;45.458;11.062;2022-12-29T08:23:30;19.10;;;11.80;;
76807;SDS011;65758;45.458;11.062;2022-12-29T08:25:58;19.60;;;12.70;;
76807;SDS011;65758;45.458;11.062;2022-12-29T08:28:27;21.00;;;12.40;;
76807;SDS011;65758;45.458;11.062;2022-12-29T08:30:56;23.90;;;12.90;;
76807;SDS011;65758;45.458;11.062;2022-12-29T08:33:24;18.50;;;11.90;;
76807;SDS011;65758;45.458;11.062;2022-12-29T08:35:52;20.40;;;12.80;;
76807;SDS011;65758;45.458;11.062;2022-12-29T08:38:19;23.00;;;13.40;;
76807;SDS011;65758;45.458;11.062;2022-12-29T08:40:45;20.60;;;13.60;;
76807;SDS011;65758;45.458;11.062;2022-12-29T08:43:12;21.20;;;12.70;;
76807;SDS011;65758;45.458;11.062;2022-12-29T08:45:44;19.90;;;13.00;;
76807;SDS011;65758;45.458;11.062;2022-12-29T08:50:37;25.90;;;16.90;;
76807;SDS011;65758;45.458;11.062;2022-12-29T08:53:04;29.70;;;17.40;;
76807;SDS011;65758;45.458;11.062;2022-12-29T08:55:31;22.90;;;16.30;;
76807;SDS011;65758;45.458;11.062;2022-12-29T08:57:58;26.70;;;15.50;;
76807;SDS011;65758;45.458;11.062;2022-12-29T09:00:25;25.10;;;16.10;;
76807;SDS011;65758;45.458;11.062;2022-12-29T09:02:52;20.50;;;12.20;;
76807;SDS011;65758;45.458;11.062;2022-12-29T09:05:19;21.80;;;13.20;;
76807;SDS011;65758;45.458;11.062;2022-12-29T09:07:46;31.80;;;13.60;;
76807;SDS011;65758;45.458;11.062;2022-12-29T09:12:40;21.20;;;12.10;;
76807;SDS011;65758;45.458;11.062;2022-12-29T09:15:07;21.10;;;14.10;;
76807;SDS011;65758;45.458;11.062;2022-12-29T09:17:34;19.50;;;12.40;;
76807;SDS011;65758;45.458;11.062;2022-12-29T09:20:09;22.80;;;13.00;;
76807;SDS011;65758;45.458;11.062;2022-12-29T09:22:37;26.60;;;15.00;;
76807;SDS011;65758;45.458;11.062;2022-12-29T09:25:04;25.50;;;15.60;;
76807;SDS011;65758;45.458;11.062;2022-12-29T09:27:31;25.20;;;14.20;;
76807;SDS011;65758;45.458;11.062;2022-12-29T09:29:58;24.40;;;15.80;;
76807;SDS011;65758;45.458;11.062;2022-12-29T09:34:59;27.30;;;16.00;;
76807;SDS011;65758;45.458;11.062;2022-12-29T09:37:26;25.50;;;15.20;;
76807;SDS011;65758;45.458;11.062;2022-12-29T09:39:53;23.80;;;15.50;;
76807;SDS011;65758;45.458;11.062;2022-12-29T09:45:04;22.20;;;12.90;;
76807;SDS011;65758;45.458;11.062;2022-12-29T09:47:52;16.40;;;11.80;;
76807;SDS011;65758;45.458;11.062;2022-12-29T09:52:53;21.20;;;13.50;;
76807;SDS011;65758;45.458;11.062;2022-12-29T09:55:39;22.10;;;13.50;;
76807;SDS011;65758;45.458;11.062;2022-12-29T10:00:58;21.70;;;13.60;;
76807;SDS011;65758;45.458;11.062;2022-12-29T10:03:47;21.60;;;14.30;;
76807;SDS011;65758;45.458;11.062;2022-12-29T10:06:32;23.90;;;14.90;;
76807;SDS011;65758;45.458;11.062;2022-12-29T10:09:34;22.90;;;14.10;;
76807;SDS011;65758;45.458;11.062;2022-12-29T10:12:22;23.50;;;14.90;;
76807;SDS011;65758;45.458;11.062;2022-12-29T10:18:18;23.70;;;14.90;;
76807;SDS011;65758;45.458;11.062;2022-12-29T10:24:10;24.20;;;15.80;;
76807;SDS011;65758;45.458;11.062;2022-12-29T10:26:42;19.10;;;12.70;;
76807;SDS011;65758;45.458;11.062;2022-12-29T10:31:58;24.50;;;15.00;;
76807;SDS011;65758;45.458;11.062;2022-12-29T10:34:37;25.20;;;16.80;;
76807;SDS011;65758;45.458;11.062;2022-12-29T10:37:14;20.60;;;13.20;;
76807;SDS011;65758;45.458;11.062;2022-12-29T10:39:59;24.80;;;15.20;;
76807;SDS011;65758;45.458;11.062;2022-12-29T10:42:43;26.20;;;16.30;;
76807;SDS011;65758;45.458;11.062;2022-12-29T10:45:15;25.90;;;16.40;;
76807;SDS011;65758;45.458;11.062;2022-12-29T10:50:17;24.10;;;15.90;;
76807;SDS011;65758;45.458;11.062;2022-12-29T10:52:45;25.70;;;16.70;;
76807;SDS011;65758;45.458;11.062;2022-12-29T10:55:15;27.50;;;15.90;;
76807;SDS011;65758;45.458;11.062;2022-12-29T10:57:48;25.80;;;16.10;;
76807;SDS011;65758;45.458;11.062;2022-12-29T11:00:17;25.30;;;16.30;;
76807;SDS011;65758;45.458;11.062;2022-12-29T11:05:57;27.60;;;16.90;;
76807;SDS011;65758;45.458;11.062;2022-12-29T11:08:35;28.20;;;17.00;;
76807;SDS011;65758;45.458;11.062;2022-12-29T11:11:05;26.90;;;17.00;;
76807;SDS011;65758;45.458;11.062;2022-12-29T11:13:35;29.40;;;18.20;;
76807;SDS011;65758;45.458;11.062;2022-12-29T11:16:14;29.20;;;17.80;;
76807;SDS011;65758;45.458;11.062;2022-12-29T11:18:53;28.10;;;18.10;;
76807;SDS011;65758;45.458;11.062;2022-12-29T11:21:40;29.80;;;19.00;;
76807;SDS011;65758;45.458;11.062;2022-12-29T11:24:18;25.40;;;17.90;;
76807;SDS011;65758;45.458;11.062;2022-12-29T11:26:48;30.50;;;18.70;;
76807;SDS011;65758;45.458;11.062;2022-12-29T11:29:17;25.90;;;17.40;;
76807;SDS011;65758;45.458;11.062;2022-12-29T11:34:29;27.10;;;17.90;;
76807;SDS011;65758;45.458;11.062;2022-12-29T11:37:04;29.90;;;18.90;;
76807;SDS011;65758;45.458;11.062;2022-12-29T11:44:48;33.50;;;21.70;;
76807;SDS011;65758;45.458;11.062;2022-12-29T11:47:21;33.90;;;22.70;;
76807;SDS011;65758;45.458;11.062;2022-12-29T11:49:52;31.90;;;21.10;;
76807;SDS011;65758;45.458;11.062;2022-12-29T11:52:23;33.90;;;20.90;;
76807;SDS011;65758;45.458;11.062;2022-12-29T11:54:53;32.80;;;21.80;;
76807;SDS011;65758;45.458;11.062;2022-12-29T11:57:22;37.40;;;22.50;;
76807;SDS011;65758;45.458;11.062;2022-12-29T11:59:52;36.30;;;22.60;;
76807;SDS011;65758;45.458;11.062;2022-12-29T12:05:09;37.30;;;22.00;;
76807;SDS011;65758;45.458;11.062;2022-12-29T12:07:44;36.10;;;22.80;;
76807;SDS011;65758;45.458;11.062;2022-12-29T12:12:55;31.40;;;20.80;;
76807;SDS011;65758;45.458;11.062;2022-12-29T12:15:35;31.60;;;21.30;;
76807;SDS011;65758;45.458;11.062;2022-12-29T12:18:47;32.40;;;21.60;;
76807;SDS011;65758;45.458;11.062;2022-12-29T12:24:18;32.10;;;22.10;;
76807;SDS011;65758;45.458;11.062;2022-12-29T12:27:28;34.40;;;22.00;;
76807;SDS011;65758;45.458;11.062;2022-12-29T12:29:52;33.70;;;22.70;;
76807;SDS011;65758;45.458;11.062;2022-12-29T12:35:04;37.10;;;22.60;;
76807;SDS011;65758;45.458;11.062;2022-12-29T12:56:46;43.60;;;24.80;;
76807;SDS011;65758;45.458;11.062;2022-12-29T13:04:54;35.50;;;21.60;;
76807;SDS011;65758;45.458;11.062;2022-12-29T13:37:04;35.80;;;23.40;;
76807;SDS011;65758;45.458;11.062;2022-12-29T13:39:39;38.90;;;22.90;;
76807;SDS011;65758;45.458;11.062;2022-12-29T13:42:09;35.60;;;22.30;;
76807;SDS011;65758;45.458;11.062;2022-12-29T13:44:49;36.50;;;23.20;;
76807;SDS011;65758;45.458;11.062;2022-12-29T13:47:42;39.30;;;25.00;;
76807;SDS011;65758;45.458;11.062;2022-12-29T13:50:19;40.50;;;25.60;;
76807;SDS011;65758;45.458;11.062;2022-12-29T13:58:17;37.30;;;23.80;;
76807;SDS011;65758;45.458;11.062;2022-12-29T14:06:23;41.40;;;26.50;;
76807;SDS011;65758;45.458;11.062;2022-12-29T14:09:02;39.90;;;23.90;;
76807;SDS011;65758;45.458;11.062;2022-12-29T14:14:10;38.40;;;24.30;;
76807;SDS011;65758;45.458;11.062;2022-12-29T14:16:49;39.80;;;24.20;;
76807;SDS011;65758;45.458;11.062;2022-12-29T14:19:18;39.30;;;24.30;;
76807;SDS011;65758;45.458;11.062;2022-12-29T14:21:52;41.90;;;24.70;;
76807;SDS011;65758;45.458;11.062;2022-12-29T14:29:42;38.90;;;24.00;;
76807;SDS011;65758;45.458;11.062;2022-12-29T14:34:47;40.60;;;25.00;;
76807;SDS011;65758;45.458;11.062;2022-12-29T14:37:28;37.70;;;24.30;;
76807;SDS011;65758;45.458;11.062;2022-12-29T14:40:13;40.50;;;24.60;;
76807;SDS011;65758;45.458;11.062;2022-12-29T14:42:44;39.30;;;24.00;;
76807;SDS011;65758;45.458;11.062;2022-12-29T14:47:40;37.60;;;22.10;;
76807;SDS011;65758;45.458;11.062;2022-12-29T14:58:27;43.00;;;26.20;;
76807;SDS011;65758;45.458;11.062;2022-12-29T15:01:04;36.90;;;23.60;;
76807;SDS011;65758;45.458;11.062;2022-12-29T15:03:48;36.50;;;23.20;;
76807;SDS011;65758;45.458;11.062;2022-12-29T15:06:18;38.50;;;23.90;;
76807;SDS011;65758;45.458;11.062;2022-12-29T15:09:05;38.20;;;23.30;;
76807;SDS011;65758;45.458;11.062;2022-12-29T15:11:42;39.80;;;24.00;;
76807;SDS011;65758;45.458;11.062;2022-12-29T15:16:59;43.00;;;25.50;;
76807;SDS011;65758;45.458;11.062;2022-12-29T15:19:27;37.60;;;25.40;;
76807;SDS011;65758;45.458;11.062;2022-12-29T15:21:55;39.50;;;26.10;;
76807;SDS011;65758;45.458;11.062;2022-12-29T15:24:23;40.40;;;24.80;;
76807;SDS011;65758;45.458;11.062;2022-12-29T15:26:51;40.40;;;24.60;;
76807;SDS011;65758;45.458;11.062;2022-12-29T15:29:40;41.50;;;25.60;;
76807;SDS011;65758;45.458;11.062;2022-12-29T15:32:16;39.10;;;25.80;;
76807;SDS011;65758;45.458;11.062;2022-12-29T15:34:44;38.00;;;24.90;;
76807;SDS011;65758;45.458;11.062;2022-12-29T15:40:03;43.40;;;28.00;;
76807;SDS011;65758;45.458;11.062;2022-12-29T15:45:04;40.90;;;26.70;;
76807;SDS011;65758;45.458;11.062;2022-12-29T15:47:39;44.50;;;25.80;;
76807;SDS011;65758;45.458;11.062;2022-12-29T15:52:55;42.70;;;26.00;;
76807;SDS011;65758;45.458;11.062;2022-12-29T15:58:17;40.70;;;26.90;;
76807;SDS011;65758;45.458;11.062;2022-12-29T16:00:52;44.50;;;28.00;;
76807;SDS011;65758;45.458;11.062;2022-12-29T16:03:27;45.90;;;27.80;;
76807;SDS011;65758;45.458;11.062;2022-12-29T16:06:10;42.30;;;26.30;;
76807;SDS011;65758;45.458;11.062;2022-12-29T16:09:10;40.70;;;24.20;;
76807;SDS011;65758;45.458;11.062;2022-12-29T16:11:41;43.10;;;25.20;;
76807;SDS011;65758;45.458;11.062;2022-12-29T16:14:20;41.70;;;25.00;;
76807;SDS011;65758;45.458;11.062;2022-12-29T16:16:55;43.40;;;25.90;;
76807;SDS011;65758;45.458;11.062;2022-12-29T16:19:29;45.20;;;26.00;;
76807;SDS011;65758;45.458;11.062;2022-12-29T16:22:01;43.10;;;25.70;;
76807;SDS011;65758;45.458;11.062;2022-12-29T16:24:30;43.50;;;26.30;;
76807;SDS011;65758;45.458;11.062;2022-12-29T16:27:02;41.60;;;26.00;;
76807;SDS011;65758;45.458;11.062;2022-12-29T16:29:53;38.80;;;24.90;;
76807;SDS011;65758;45.458;11.062;2022-12-29T16:32:28;44.80;;;26.60;;
76807;SDS011;65758;45.458;11.062;2022-12-29T16:37:47;41.60;;;26.90;;
76807;SDS011;65758;45.458;11.062;2022-12-29T16:42:46;46.50;;;28.80;;
76807;SDS011;65758;45.458;11.062;2022-12-29T16:50:23;47.70;;;26.70;;
76807;SDS011;65758;45.458;11.062;2022-12-29T16:52:54;43.80;;;28.00;;
76807;SDS011;65758;45.458;11.062;2022-12-29T16:55:21;48.10;;;27.50;;
76807;SDS011;65758;45.458;11.062;2022-12-29T16:57:48;45.60;;;26.10;;
76807;SDS011;65758;45.458;11.062;2022-12-29T17:00:20;42.90;;;26.70;;
76807;SDS011;65758;45.458;11.062;2022-12-29T17:02:49;41.70;;;26.80;;
76807;SDS011;65758;45.458;11.062;2022-12-29T17:05:19;42.00;;;24.80;;
76807;SDS011;65758;45.458;11.062;2022-12-29T17:07:46;41.20;;;24.50;;
76807;SDS011;65758;45.458;11.062;2022-12-29T17:10:13;43.70;;;26.50;;
76807;SDS011;65758;45.458;11.062;2022-12-29T17:12:42;39.70;;;25.20;;
76807;SDS011;65758;45.458;11.062;2022-12-29T17:15:21;44.40;;;28.80;;
76807;SDS011;65758;45.458;11.062;2022-12-29T17:17:58;46.00;;;28.60;;
76807;SDS011;65758;45.458;11.062;2022-12-29T17:20:27;44.00;;;25.40;;
76807;SDS011;65758;45.458;11.062;2022-12-29T17:22:56;47.20;;;27.60;;
76807;SDS011;65758;45.458;11.062;2022-12-29T17:25:32;42.80;;;26.70;;
76807;SDS011;65758;45.458;11.062;2022-12-29T17:30:31;43.30;;;27.20;;
76807;SDS011;65758;45.458;11.062;2022-12-29T17:33:01;38.10;;;26.00;;
76807;SDS011;65758;45.458;11.062;2022-12-29T17:35:34;44.50;;;28.40;;
76807;SDS011;65758;45.458;11.062;2022-12-29T17:38:01;42.50;;;26.90;;
76807;SDS011;65758;45.458;11.062;2022-12-29T17:40:28;38.70;;;25.10;;
76807;SDS011;65758;45.458;11.062;2022-12-29T17:42:58;43.10;;;26.70;;
76807;SDS011;65758;45.458;11.062;2022-12-29T17:45:26;44.80;;;27.30;;
76807;SDS011;65758;45.458;11.062;2022-12-29T17:47:55;40.50;;;25.00;;
76807;SDS011;65758;45.458;11.062;2022-12-29T17:50:25;43.20;;;25.40;;
76807;SDS011;65758;45.458;11.062;2022-12-29T17:52:58;41.80;;;26.90;;
76807;SDS011;65758;45.458;11.062;2022-12-29T17:55:28;43.90;;;26.70;;
76807;SDS011;65758;45.458;11.062;2022-12-29T17:58:37;45.00;;;27.90;;
76807;SDS011;65758;45.458;11.062;2022-12-29T18:00:59;44.40;;;26.50;;
76807;SDS011;65758;45.458;11.062;2022-12-29T18:03:34;45.50;;;27.70;;
76807;SDS011;65758;45.458;11.062;2022-12-29T18:06:03;121.40;;;70.20;;
76807;SDS011;65758;45.458;11.062;2022-12-29T18:08:34;49.70;;;32.30;;
76807;SDS011;65758;45.458;11.062;2022-12-29T18:11:01;44.00;;;27.70;;
76807;SDS011;65758;45.458;11.062;2022-12-29T18:13:30;43.50;;;27.40;;
76807;SDS011;65758;45.458;11.062;2022-12-29T18:16:11;44.20;;;27.40;;
76807;SDS011;65758;45.458;11.062;2022-12-29T18:18:39;44.20;;;27.70;;
76807;SDS011;65758;45.458;11.062;2022-12-29T18:21:08;49.40;;;29.40;;
76807;SDS011;65758;45.458;11.062;2022-12-29T18:23:41;67.50;;;46.60;;
76807;SDS011;65758;45.458;11.062;2022-12-29T18:28:54;43.40;;;26.30;;
76807;SDS011;65758;45.458;11.062;2022-12-29T18:31:29;45.60;;;26.70;;
76807;SDS011;65758;45.458;11.062;2022-12-29T18:33:59;41.00;;;26.60;;
76807;SDS011;65758;45.458;11.062;2022-12-29T18:36:28;41.80;;;26.60;;
76807;SDS011;65758;45.458;11.062;2022-12-29T18:38:55;42.60;;;26.50;;
76807;SDS011;65758;45.458;11.062;2022-12-29T18:41:26;42.00;;;26.60;;
76807;SDS011;65758;45.458;11.062;2022-12-29T18:43:57;41.60;;;24.70;;
76807;SDS011;65758;45.458;11.062;2022-12-29T18:46:25;42.10;;;26.60;;
76807;SDS011;65758;45.458;11.062;2022-12-29T18:48:52;45.70;;;27.40;;
76807;SDS011;65758;45.458;11.062;2022-12-29T18:51:20;44.80;;;25.80;;